createdAt,value
2019-05-22T00:01:39.780Z,38.07
2019-05-22T00:04:16.255Z,37.30
2019-05-22T00:06:45.054Z,36.87
2019-05-22T00:09:22.629Z,37.60
2019-05-22T00:11:52.083Z,33.53
2019-05-22T00:14:20.123Z,36.73
2019-05-22T00:16:50.358Z,39.70
2019-05-22T00:19:20.170Z,33.03
2019-05-22T00:21:51.435Z,33.93
2019-05-22T00:24:19.698Z,34.73
2019-05-22T00:26:50.242Z,32.83
2019-05-22T00:29:17.749Z,32.63
2019-05-22T00:31:47.678Z,31.80
2019-05-22T00:34:16.850Z,33.07
2019-05-22T00:36:46.959Z,31.30
2019-05-22T00:39:17.489Z,32.70
2019-05-22T00:41:50.767Z,31.60
2019-05-22T00:44:21.386Z,30.00
2019-05-22T00:46:52.342Z,32.37
2019-05-22T00:49:24.342Z,33.73
2019-05-22T00:52:08.869Z,34.23
2019-05-22T00:54:54.813Z,31.23
2019-05-22T00:57:29.611Z,29.37
2019-05-22T01:00:16.190Z,29.03
2019-05-22T01:02:47.241Z,31.97
2019-05-22T01:05:17.560Z,36.20
2019-05-22T01:07:47.014Z,34.63
2019-05-22T01:10:17.749Z,33.20
2019-05-22T01:12:49.746Z,37.13
2019-05-22T01:15:21.406Z,37.20
2019-05-22T01:17:49.584Z,37.93
2019-05-22T01:20:19.012Z,40.80
2019-05-22T01:22:49.339Z,35.60
2019-05-22T01:25:21.662Z,38.20
2019-05-22T01:27:49.789Z,32.10
2019-05-22T01:30:28.402Z,34.97
2019-05-22T01:32:59.172Z,31.10
2019-05-22T01:35:32.749Z,31.67
2019-05-22T01:38:01.047Z,29.03
2019-05-22T01:40:42.638Z,29.37
2019-05-22T01:43:14.025Z,32.03
2019-05-22T01:45:52.331Z,30.43
2019-05-22T01:48:22.745Z,30.63
2019-05-22T01:51:03.338Z,32.20
2019-05-22T01:53:37.326Z,38.70
2019-05-22T01:56:07.411Z,35.07
2019-05-22T01:58:37.084Z,33.73
2019-05-22T02:01:09.973Z,34.50
2019-05-22T02:03:38.923Z,34.20
2019-05-22T02:06:07.316Z,37.63
2019-05-22T02:08:41.170Z,39.17
2019-05-22T02:11:12.497Z,34.00
2019-05-22T02:13:45.629Z,33.90
2019-05-22T02:16:16.780Z,32.73
2019-05-22T02:18:45.408Z,34.67
2019-05-22T02:21:15.628Z,32.80
2019-05-22T02:23:43.564Z,32.97
2019-05-22T02:26:13.791Z,37.93
2019-05-22T02:28:42.917Z,33.97
2019-05-22T02:31:17.032Z,35.13
2019-05-22T02:34:01.187Z,39.53
2019-05-22T02:36:29.068Z,39.40
2019-05-22T02:38:58.550Z,40.43
2019-05-22T02:41:35.444Z,38.67
2019-05-22T02:44:03.545Z,40.27
2019-05-22T02:46:31.971Z,45.57
2019-05-22T02:49:01.533Z,39.27
2019-05-22T02:51:29.725Z,38.93
2019-05-22T02:54:01.421Z,38.13
2019-05-22T02:56:30.877Z,40.33
2019-05-22T02:59:00.030Z,43.73
2019-05-22T03:01:29.661Z,41.73
2019-05-22T03:03:58.892Z,36.93
2019-05-22T03:06:27.825Z,37.33
2019-05-22T03:09:28.588Z,42.37
2019-05-22T03:12:01.086Z,39.43
2019-05-22T03:14:32.509Z,45.37
2019-05-22T03:17:02.663Z,39.53
2019-05-22T03:19:36.208Z,42.30
2019-05-22T03:22:20.870Z,40.13
2019-05-22T03:24:50.991Z,38.77
2019-05-22T03:27:26.655Z,42.00
2019-05-22T03:29:55.967Z,42.97
2019-05-22T03:32:24.185Z,40.13
2019-05-22T03:34:52.885Z,38.40
2019-05-22T03:37:21.147Z,33.33
2019-05-22T03:39:49.875Z,38.47
2019-05-22T03:42:20.355Z,33.83
2019-05-22T03:44:49.127Z,36.80
2019-05-22T03:47:17.338Z,39.27
2019-05-22T03:49:46.002Z,41.53
2019-05-22T03:52:14.825Z,34.60
2019-05-22T03:54:43.313Z,32.87
2019-05-22T03:57:12.525Z,33.70
2019-05-22T03:59:41.222Z,39.07
2019-05-22T04:02:10.103Z,38.10
2019-05-22T04:04:41.689Z,40.63
2019-05-22T04:07:15.875Z,38.00
2019-05-22T04:09:44.501Z,38.63
2019-05-22T04:12:13.438Z,40.23
2019-05-22T04:14:41.905Z,41.87
2019-05-22T04:17:12.476Z,44.70
2019-05-22T04:19:49.347Z,45.20
2019-05-22T04:22:11.113Z,50.33
2019-05-22T04:24:40.418Z,47.93
2019-05-22T04:27:10.477Z,54.30
2019-05-22T04:29:39.244Z,54.13
2019-05-22T04:32:25.112Z,55.57
2019-05-22T04:34:53.997Z,57.23
2019-05-22T04:37:23.066Z,61.60
2019-05-22T04:39:54.555Z,60.63
2019-05-22T04:42:26.361Z,60.63
2019-05-22T04:45:12.822Z,61.77
2019-05-22T04:47:48.347Z,65.40
2019-05-22T04:50:16.853Z,61.80
2019-05-22T04:52:46.200Z,63.23
2019-05-22T04:55:14.754Z,58.50
2019-05-22T04:57:43.383Z,58.57
2019-05-22T05:00:12.531Z,62.10
2019-05-22T05:02:41.131Z,57.33
2019-05-22T05:05:11.299Z,61.70
2019-05-22T05:07:41.012Z,63.20
2019-05-22T05:10:10.400Z,61.00
2019-05-22T05:12:41.441Z,56.90
2019-05-22T05:15:10.644Z,58.00
2019-05-22T05:17:39.126Z,59.23
2019-05-22T05:20:21.384Z,60.57
2019-05-22T05:22:42.467Z,59.50
2019-05-22T05:25:11.330Z,56.07
2019-05-22T05:27:39.625Z,56.63
2019-05-22T05:30:08.080Z,66.07
2019-05-22T05:32:36.896Z,54.00
2019-05-22T05:35:07.556Z,62.50
2019-05-22T05:37:36.048Z,66.30
2019-05-22T05:40:38.785Z,65.90
2019-05-22T05:43:08.092Z,66.03
2019-05-22T05:45:38.217Z,67.93
2019-05-22T05:48:09.130Z,63.00
2019-05-22T05:50:40.585Z,63.53
2019-05-22T05:53:18.794Z,64.80
2019-05-22T05:56:24.871Z,64.13
2019-05-22T05:58:53.961Z,62.43
2019-05-22T06:01:32.434Z,66.03
2019-05-22T06:04:01.566Z,75.17
2019-05-22T06:07:09.865Z,68.07
2019-05-22T06:09:37.890Z,70.50
2019-05-22T06:12:08.813Z,70.97
2019-05-22T06:14:38.210Z,72.27
2019-05-22T06:17:56.657Z,73.13
2019-05-22T06:20:25.719Z,77.07
2019-05-22T06:23:44.601Z,65.60
2019-05-22T06:26:36.876Z,73.60
2019-05-22T06:29:04.924Z,76.50
2019-05-22T06:31:43.583Z,65.40
2019-05-22T06:34:11.980Z,69.77
2019-05-22T06:36:40.665Z,56.77
2019-05-22T06:39:11.952Z,68.70
2019-05-22T06:41:42.502Z,60.70
2019-05-22T06:44:43.565Z,58.40
2019-05-22T06:47:15.521Z,60.97
2019-05-22T06:49:48.469Z,61.20
2019-05-22T06:52:16.259Z,60.83
2019-05-22T06:54:44.265Z,65.07
2019-05-22T06:57:30.367Z,65.20
2019-05-22T07:00:14.173Z,68.30
2019-05-22T07:02:35.062Z,52.07
2019-05-22T07:05:05.465Z,52.60
2019-05-22T07:07:34.026Z,56.03
2019-05-22T07:10:03.856Z,52.67
2019-05-22T07:12:35.198Z,51.93
2019-05-22T07:15:31.306Z,54.40
2019-05-22T07:18:00.923Z,54.27
2019-05-22T07:20:32.070Z,51.00
2019-05-22T07:23:01.323Z,55.33
2019-05-22T07:25:30.839Z,45.57
2019-05-22T07:27:59.845Z,61.77
2019-05-22T07:30:28.579Z,54.47
2019-05-22T07:32:57.275Z,53.43
2019-05-22T07:35:43.777Z,50.80
2019-05-22T07:37:57.057Z,45.97
2019-05-22T07:40:25.801Z,51.00
2019-05-22T07:42:55.898Z,43.97
2019-05-22T07:45:26.706Z,47.63
2019-05-22T07:47:55.753Z,48.27
2019-05-22T07:50:24.030Z,46.10
2019-05-22T07:52:52.321Z,44.70
2019-05-22T07:55:22.232Z,47.83
2019-05-22T07:57:55.075Z,42.37
2019-05-22T08:00:23.273Z,42.77
2019-05-22T08:02:52.089Z,46.33
2019-05-22T08:05:23.055Z,45.07
2019-05-22T08:07:51.181Z,54.83
2019-05-22T08:10:21.315Z,41.97
2019-05-22T08:12:49.915Z,38.43
2019-05-22T08:15:18.299Z,43.67
2019-05-22T08:17:46.700Z,40.83
2019-05-22T08:20:15.306Z,43.50
2019-05-22T08:22:44.404Z,41.90
2019-05-22T08:25:13.126Z,38.93
2019-05-22T08:27:42.026Z,37.23
2019-05-22T08:30:10.734Z,40.03
2019-05-22T08:32:39.901Z,36.40
2019-05-22T08:35:08.131Z,33.90
2019-05-22T08:37:38.249Z,38.67
2019-05-22T08:40:06.751Z,36.97
2019-05-22T08:42:35.788Z,34.77
2019-05-22T08:45:05.216Z,38.27
2019-05-22T08:47:33.172Z,33.93
2019-05-22T08:50:01.686Z,33.97
2019-05-22T08:52:30.931Z,33.77
2019-05-22T08:54:58.848Z,36.67
2019-05-22T08:57:27.196Z,32.33
2019-05-22T08:59:55.704Z,34.03
2019-05-22T09:02:24.602Z,36.67
2019-05-22T09:04:52.773Z,30.23
2019-05-22T09:07:21.614Z,31.77
2019-05-22T09:09:50.219Z,27.37
2019-05-22T09:12:19.400Z,32.03
2019-05-22T09:14:48.285Z,30.27
2019-05-22T09:17:17.272Z,27.23
2019-05-22T09:19:45.841Z,27.43
2019-05-22T09:22:14.237Z,28.17
2019-05-22T09:24:42.857Z,28.50
2019-05-22T09:27:12.174Z,23.70
2019-05-22T09:29:42.605Z,25.57
2019-05-22T09:32:10.795Z,30.93
2019-05-22T09:34:39.215Z,24.93
2019-05-22T09:37:07.519Z,27.20
2019-05-22T09:39:36.202Z,25.60
2019-05-22T09:42:04.590Z,24.10
2019-05-22T09:44:33.279Z,23.13
2019-05-22T09:47:01.967Z,20.63
2019-05-22T09:49:31.706Z,24.63
2019-05-22T09:52:00.754Z,21.87
2019-05-22T09:54:29.011Z,24.63
2019-05-22T09:56:57.131Z,21.77
2019-05-22T09:59:24.758Z,24.03
2019-05-22T10:01:53.283Z,22.60
2019-05-22T10:04:21.581Z,22.83
2019-05-22T10:06:49.750Z,19.33
2019-05-22T10:09:18.574Z,24.33
2019-05-22T10:11:46.632Z,21.87
2019-05-22T10:14:15.197Z,21.07
2019-05-22T10:16:43.850Z,20.10
2019-05-22T10:19:12.190Z,24.73
2019-05-22T10:21:40.765Z,21.57
2019-05-22T10:24:09.364Z,19.20
2019-05-22T10:26:37.740Z,19.73
2019-05-22T10:29:06.331Z,20.80
2019-05-22T10:31:34.782Z,20.20
2019-05-22T10:34:03.478Z,19.57
2019-05-22T10:36:31.405Z,20.80
2019-05-22T10:39:00.206Z,23.03
2019-05-22T10:41:28.948Z,23.57
2019-05-22T10:43:57.222Z,22.77
2019-05-22T10:46:25.962Z,20.40
2019-05-22T10:48:54.576Z,19.50
2019-05-22T10:51:23.246Z,20.23
2019-05-22T10:53:52.020Z,17.30
2019-05-22T10:56:20.310Z,17.97
2019-05-22T10:58:48.848Z,15.70
2019-05-22T11:01:17.681Z,20.13
2019-05-22T11:03:46.421Z,17.97
2019-05-22T11:06:15.881Z,19.53
2019-05-22T11:08:44.551Z,18.67
2019-05-22T11:11:12.557Z,16.87
2019-05-22T11:13:40.927Z,17.03
2019-05-22T11:16:09.797Z,13.63
2019-05-22T11:18:38.068Z,12.13
2019-05-22T11:21:07.010Z,15.47
2019-05-22T11:23:50.633Z,13.77
2019-05-22T11:26:05.840Z,12.10
2019-05-22T11:28:34.264Z,10.67
2019-05-22T11:31:03.564Z,12.10
2019-05-22T11:33:34.287Z,12.47
2019-05-22T11:36:02.768Z,10.67
2019-05-22T11:38:30.916Z,10.83
2019-05-22T11:40:58.874Z,11.03
2019-05-22T11:43:27.579Z,14.20
2019-05-22T11:45:56.358Z,17.40
2019-05-22T11:48:24.862Z,12.20
2019-05-22T11:50:53.409Z,13.87
2019-05-22T11:53:21.351Z,14.07
2019-05-22T11:55:49.902Z,13.40
2019-05-22T11:58:19.082Z,13.60
2019-05-22T12:00:53.825Z,20.03
2019-05-22T12:03:26.282Z,12.90
2019-05-22T12:05:54.557Z,11.13
2019-05-22T12:08:24.617Z,10.90
2019-05-22T12:10:52.540Z,10.30
2019-05-22T12:13:20.871Z,11.87
2019-05-22T12:15:49.067Z,8.97
2019-05-22T12:18:17.488Z,10.87
2019-05-22T12:20:46.289Z,11.67
2019-05-22T12:23:14.633Z,10.53
2019-05-22T12:25:43.112Z,13.73
2019-05-22T12:28:11.895Z,11.93
2019-05-22T12:30:44.802Z,17.13
2019-05-22T12:33:14.669Z,13.30
2019-05-22T12:35:43.907Z,14.40
2019-05-22T12:38:12.996Z,14.45
2019-05-22T12:40:44.475Z,11.23
2019-05-22T12:43:17.003Z,9.87
2019-05-22T12:45:45.482Z,8.63
2019-05-22T12:48:15.294Z,9.93
2019-05-22T12:50:47.080Z,9.87
2019-05-22T12:53:16.594Z,8.90
2019-05-22T12:55:47.692Z,9.60
2019-05-22T12:58:17.468Z,10.00
2019-05-22T13:00:45.697Z,9.03
2019-05-22T13:03:19.372Z,9.60
2019-05-22T13:05:51.372Z,13.70
2019-05-22T13:08:19.087Z,10.37
2019-05-22T13:10:48.938Z,9.33
2019-05-22T13:13:17.585Z,11.03
2019-05-22T13:15:46.325Z,10.47
2019-05-22T13:18:16.765Z,13.10
2019-05-22T13:20:49.142Z,11.37
2019-05-22T13:23:19.438Z,13.33
2019-05-22T13:25:48.476Z,10.47
2019-05-22T13:28:17.817Z,12.77
2019-05-22T13:30:50.792Z,14.20
2019-05-22T13:33:21.700Z,11.40
2019-05-22T13:35:50.279Z,11.13
2019-05-22T13:38:21.030Z,13.13
2019-05-22T13:40:49.713Z,12.03
2019-05-22T13:43:19.383Z,12.63
2019-05-22T13:45:51.851Z,13.57
2019-05-22T13:48:20.410Z,14.27
2019-05-22T13:50:52.264Z,12.47
2019-05-22T13:53:22.572Z,11.27
2019-05-22T13:55:52.261Z,8.47
2019-05-22T13:58:21.921Z,12.60
2019-05-22T14:00:55.084Z,9.60
2019-05-22T14:03:24.042Z,12.03
2019-05-22T14:05:56.093Z,14.23
2019-05-22T14:08:24.371Z,11.47
2019-05-22T14:10:54.308Z,14.20
2019-05-22T14:13:25.323Z,12.80
2019-05-22T14:15:56.876Z,11.47
2019-05-22T14:18:23.407Z,11.23
2019-05-22T14:20:51.284Z,12.77
2019-05-22T14:23:20.212Z,12.10
2019-05-22T14:25:48.476Z,12.33
2019-05-22T14:28:16.729Z,14.23
2019-05-22T14:30:50.886Z,13.47
2019-05-22T14:33:19.653Z,12.10
2019-05-22T14:35:49.564Z,11.87
2019-05-22T14:38:18.332Z,10.90
2019-05-22T14:40:47.117Z,10.67
2019-05-22T14:43:15.435Z,10.87
2019-05-22T14:45:44.332Z,11.57
2019-05-22T14:48:13.412Z,10.23
2019-05-22T14:50:43.559Z,9.83
2019-05-22T14:53:13.252Z,11.97
2019-05-22T14:55:42.476Z,11.77
2019-05-22T14:58:11.939Z,14.40
2019-05-22T15:00:45.213Z,15.33
2019-05-22T15:03:15.767Z,16.83
2019-05-22T15:05:44.971Z,15.63
2019-05-22T15:08:13.371Z,15.90
2019-05-22T15:10:41.677Z,14.63
2019-05-22T15:13:09.714Z,14.43
2019-05-22T15:15:40.994Z,15.60
2019-05-22T15:18:12.568Z,12.87
2019-05-22T15:20:48.616Z,14.53
2019-05-22T15:23:17.336Z,15.53
2019-05-22T15:25:48.583Z,14.07
2019-05-22T15:28:17.412Z,18.77
2019-05-22T15:30:45.847Z,16.37
2019-05-22T15:33:14.252Z,12.27
2019-05-22T15:35:41.969Z,14.70
2019-05-22T15:38:10.389Z,14.20
2019-05-22T15:40:38.730Z,13.33
2019-05-22T15:43:07.727Z,14.27
2019-05-22T15:45:40.831Z,16.30
2019-05-22T15:48:12.929Z,16.27
2019-05-22T15:50:43.087Z,14.07
2019-05-22T15:53:15.042Z,14.27
2019-05-22T15:55:43.636Z,14.17
2019-05-22T15:58:17.421Z,11.77
2019-05-22T16:00:46.918Z,13.27
2019-05-22T16:03:20.248Z,11.77
2019-05-22T16:05:50.884Z,10.10
2019-05-22T16:08:22.369Z,10.67
2019-05-22T16:10:51.945Z,12.60
2019-05-22T16:13:22.641Z,11.33
2019-05-22T16:15:55.029Z,11.63
2019-05-22T16:18:28.711Z,10.17
2019-05-22T16:21:00.192Z,11.10
2019-05-22T16:23:31.103Z,11.33
2019-05-22T16:25:59.534Z,12.80
2019-05-22T16:28:33.174Z,9.43
2019-05-22T16:30:59.867Z,11.40
2019-05-22T16:33:28.257Z,9.03
2019-05-22T16:35:57.003Z,10.97
2019-05-22T16:38:25.750Z,9.20
2019-05-22T16:40:54.664Z,7.70
2019-05-22T16:43:23.036Z,12.50
2019-05-22T16:45:51.626Z,9.77
2019-05-22T16:48:28.973Z,9.80
2019-05-22T16:50:51.013Z,10.57
2019-05-22T16:53:21.437Z,10.23
2019-05-22T16:55:49.913Z,9.10
2019-05-22T16:58:18.858Z,12.13
2019-05-22T17:00:49.434Z,13.43
2019-05-22T17:03:18.723Z,12.10
2019-05-22T17:05:47.941Z,10.90
2019-05-22T17:08:15.979Z,11.17
2019-05-22T17:10:44.056Z,11.70
2019-05-22T17:13:13.972Z,11.70
2019-05-22T17:15:42.972Z,13.23
2019-05-22T17:18:13.302Z,11.73
2019-05-22T17:20:42.466Z,12.03
2019-05-22T17:23:10.649Z,11.93
2019-05-22T17:25:39.006Z,11.87
2019-05-22T17:28:07.595Z,11.67
2019-05-22T17:30:36.699Z,10.83
2019-05-22T17:33:05.348Z,11.90
2019-05-22T17:35:33.847Z,11.47
2019-05-22T17:38:03.048Z,12.80
2019-05-22T17:40:31.193Z,13.90
2019-05-22T17:42:59.497Z,13.07
2019-05-22T17:45:28.541Z,13.00
2019-05-22T17:47:57.309Z,12.77
2019-05-22T17:50:27.728Z,12.17
2019-05-22T17:52:56.642Z,13.43
2019-05-22T17:55:25.512Z,15.20
2019-05-22T17:57:54.181Z,11.00
2019-05-22T18:00:28.519Z,12.53
2019-05-22T18:02:57.671Z,13.83
2019-05-22T18:05:28.287Z,15.93
2019-05-22T18:07:57.171Z,12.27
2019-05-22T18:10:26.040Z,13.53
2019-05-22T18:12:53.936Z,11.70
2019-05-22T18:15:23.075Z,14.40
2019-05-22T18:17:51.763Z,13.43
2019-05-22T18:20:20.429Z,15.83
2019-05-22T18:22:49.034Z,15.80
2019-05-22T18:25:18.114Z,15.50
2019-05-22T18:27:46.846Z,16.27
2019-05-22T18:30:15.236Z,14.43
2019-05-22T18:32:43.563Z,13.10
2019-05-22T18:35:14.592Z,14.43
2019-05-22T18:37:42.595Z,14.00
2019-05-22T18:40:12.832Z,13.70
2019-05-22T18:42:41.193Z,11.03
2019-05-22T18:45:10.860Z,10.73
2019-05-22T18:47:38.961Z,15.80
2019-05-22T18:50:06.960Z,15.10
2019-05-22T18:52:41.244Z,14.33
2019-05-22T18:55:06.466Z,14.03
2019-05-22T18:57:34.782Z,13.87
2019-05-22T19:00:06.002Z,16.33
2019-05-22T19:02:33.426Z,15.20
2019-05-22T19:05:01.582Z,13.50
2019-05-22T19:07:29.960Z,12.20
2019-05-22T19:09:58.225Z,13.00
2019-05-22T19:12:26.324Z,13.30
2019-05-22T19:14:53.951Z,15.00
2019-05-22T19:17:22.985Z,12.97
2019-05-22T19:19:51.791Z,11.47
2019-05-22T19:22:20.268Z,14.90
2019-05-22T19:24:47.966Z,12.17
2019-05-22T19:27:16.806Z,13.22
2019-05-22T19:29:45.228Z,11.60
2019-05-22T19:32:13.688Z,12.13
2019-05-22T19:34:41.691Z,12.47
2019-05-22T19:37:10.126Z,16.40
2019-05-22T19:39:38.241Z,16.07
2019-05-22T19:42:07.090Z,16.23
2019-05-22T19:44:35.932Z,15.20
2019-05-22T19:47:04.819Z,17.53
2019-05-22T19:49:33.065Z,18.53
2019-05-22T19:52:02.060Z,18.87
2019-05-22T19:54:30.275Z,19.47
2019-05-22T19:56:59.003Z,18.07
2019-05-22T19:59:27.459Z,11.70
2019-05-22T20:01:55.770Z,16.73
2019-05-22T20:04:24.267Z,16.57
2019-05-22T20:06:52.524Z,18.63
2019-05-22T20:09:21.495Z,25.80
2019-05-22T20:11:50.247Z,14.37
2019-05-22T20:14:20.205Z,11.27
2019-05-22T20:16:48.788Z,14.07
2019-05-22T20:19:17.206Z,15.10
2019-05-22T20:21:47.018Z,15.23
2019-05-22T20:24:15.714Z,15.20
2019-05-22T20:26:46.117Z,17.70
2019-05-22T20:29:16.127Z,15.30
2019-05-22T20:31:44.582Z,18.03
2019-05-22T20:34:12.917Z,17.80
2019-05-22T20:36:41.754Z,17.53
2019-05-22T20:39:12.707Z,15.90
2019-05-22T20:41:41.650Z,17.70
2019-05-22T20:44:10.575Z,16.87
2019-05-22T20:46:41.018Z,14.90
2019-05-22T20:49:12.113Z,13.83
2019-05-22T20:51:41.739Z,12.77
2019-05-22T20:54:11.088Z,13.60
2019-05-22T20:56:39.842Z,11.97
2019-05-22T20:59:10.149Z,14.73
2019-05-22T21:01:39.852Z,12.77
2019-05-22T21:04:12.898Z,10.27
2019-05-22T21:06:49.751Z,12.33
2019-05-22T21:09:18.033Z,12.27
2019-05-22T21:11:47.197Z,12.20
2019-05-22T21:14:16.543Z,12.67
2019-05-22T21:16:45.713Z,11.90
2019-05-22T21:19:16.489Z,12.30
2019-05-22T21:21:45.901Z,13.83
2019-05-22T21:24:14.687Z,13.37
2019-05-22T21:26:44.822Z,15.17
2019-05-22T21:29:13.967Z,14.63
2019-05-22T21:31:47.750Z,15.97
2019-05-22T21:34:15.601Z,14.10
2019-05-22T21:36:44.517Z,13.30
2019-05-22T21:39:14.923Z,12.07
2019-05-22T21:41:43.904Z,11.77
2019-05-22T21:44:11.916Z,14.27
2019-05-22T21:46:41.633Z,13.17
2019-05-22T21:49:10.178Z,14.93
2019-05-22T21:51:38.496Z,12.30
2019-05-22T21:54:07.383Z,12.50
2019-05-22T21:56:35.366Z,12.17
2019-05-22T21:59:03.532Z,15.33
2019-05-22T22:01:39.593Z,13.43
2019-05-22T22:04:20.057Z,14.47
2019-05-22T22:06:49.276Z,15.13
2019-05-22T22:09:17.992Z,13.27
2019-05-22T22:11:47.767Z,13.97
2019-05-22T22:14:16.409Z,13.40
2019-05-22T22:16:45.153Z,19.60
2019-05-22T22:19:14.684Z,13.50
2019-05-22T22:21:42.954Z,12.97
2019-05-22T22:24:12.154Z,12.33
2019-05-22T22:26:40.881Z,11.30
2019-05-22T22:29:09.802Z,11.90
2019-05-22T22:31:38.949Z,13.97
2019-05-22T22:34:17.122Z,16.07
2019-05-22T22:36:45.533Z,13.13
2019-05-22T22:39:15.012Z,11.63
2019-05-22T22:41:45.760Z,16.07
2019-05-22T22:44:14.673Z,15.03
2019-05-22T22:47:02.425Z,17.83
2019-05-22T22:49:31.908Z,13.43
2019-05-22T22:52:00.707Z,13.07
2019-05-22T22:54:29.927Z,14.93
2019-05-22T22:56:59.361Z,13.83
2019-05-22T22:59:28.052Z,16.05
2019-05-22T23:01:59.328Z,13.90
2019-05-22T23:04:28.149Z,12.27
2019-05-22T23:07:00.841Z,12.17
2019-05-22T23:09:30.233Z,14.63
2019-05-22T23:11:59.402Z,16.23
2019-05-22T23:14:28.884Z,14.63
2019-05-22T23:16:57.327Z,13.03
2019-05-22T23:19:40.441Z,14.33
2019-05-22T23:22:11.736Z,14.33
2019-05-22T23:24:42.996Z,15.50
2019-05-22T23:27:13.007Z,16.13
2019-05-22T23:29:41.989Z,16.10
2019-05-22T23:32:11.752Z,16.17
2019-05-22T23:34:41.051Z,13.77
2019-05-22T23:37:10.567Z,12.43
2019-05-22T23:39:39.444Z,14.10
2019-05-22T23:42:12.435Z,13.40
2019-05-22T23:44:40.762Z,16.10
2019-05-22T23:47:09.037Z,13.53
2019-05-22T23:49:39.185Z,12.77
2019-05-22T23:52:07.350Z,13.17
2019-05-22T23:54:36.772Z,15.03
2019-05-22T23:57:05.362Z,13.47
2019-05-22T23:59:35.631Z,12.80
